sensor_id;sensor_type;location;lat;lon;timestamp;pressure;altitude;pressure_sealevel;temperature;humidity
64683;BME280;51107;47.652;19.016;2023-04-01T00:01:16;98472.69;;;8.52;100.00
64683;BME280;51107;47.652;19.016;2023-04-01T00:03:46;98473.22;;;8.47;100.00
64683;BME280;51107;47.652;19.016;2023-04-01T00:06:16;98479.03;;;8.41;100.00
64683;BME280;51107;47.652;19.016;2023-04-01T00:08:45;98486.81;;;8.49;100.00
64683;BME280;51107;47.652;19.016;2023-04-01T00:11:15;98486.50;;;8.53;100.00
64683;BME280;51107;47.652;19.016;2023-04-01T00:13:44;98493.13;;;8.55;100.00
64683;BME280;51107;47.652;19.016;2023-04-01T00:16:13;98483.84;;;8.61;100.00
64683;BME280;51107;47.652;19.016;2023-04-01T00:18:50;98490.66;;;8.62;100.00
64683;BME280;51107;47.652;19.016;2023-04-01T00:21:20;98491.13;;;8.65;100.00
64683;BME280;51107;47.652;19.016;2023-04-01T00:23:50;98485.91;;;8.74;100.00
64683;BME280;51107;47.652;19.016;2023-04-01T00:26:19;98504.88;;;8.74;100.00
64683;BME280;51107;47.652;19.016;2023-04-01T00:28:49;98499.69;;;8.74;100.00
64683;BME280;51107;47.652;19.016;2023-04-01T00:31:18;98499.03;;;8.80;100.00
64683;BME280;51107;47.652;19.016;2023-04-01T00:33:46;98487.38;;;8.76;100.00
64683;BME280;51107;47.652;19.016;2023-04-01T00:36:18;98496.59;;;8.79;100.00
64683;BME280;51107;47.652;19.016;2023-04-01T00:38:47;98496.44;;;8.80;100.00
64683;BME280;51107;47.652;19.016;2023-04-01T00:41:16;98489.78;;;8.78;100.00
64683;BME280;51107;47.652;19.016;2023-04-01T00:43:47;98495.16;;;8.76;100.00
64683;BME280;51107;47.652;19.016;2023-04-01T00:46:16;98488.28;;;8.83;100.00
64683;BME280;51107;47.652;19.016;2023-04-01T00:48:50;98481.16;;;8.77;100.00
64683;BME280;51107;47.652;19.016;2023-04-01T00:51:25;98472.78;;;8.67;100.00
64683;BME280;51107;47.652;19.016;2023-04-01T00:53:56;98476.41;;;8.58;100.00
64683;BME280;51107;47.652;19.016;2023-04-01T00:56:30;98474.63;;;8.58;100.00
64683;BME280;51107;47.652;19.016;2023-04-01T00:59:08;98474.13;;;8.63;100.00
64683;BME280;51107;47.652;19.016;2023-04-01T01:01:39;98478.97;;;8.66;100.00
64683;BME280;51107;47.652;19.016;2023-04-01T01:04:21;98475.41;;;8.67;100.00
64683;BME280;51107;47.652;19.016;2023-04-01T01:15:26;98482.47;;;8.73;100.00
64683;BME280;51107;47.652;19.016;2023-04-01T01:18:16;98478.00;;;8.67;100.00
64683;BME280;51107;47.652;19.016;2023-04-01T01:32:52;98474.69;;;8.73;100.00
64683;BME280;51107;47.652;19.016;2023-04-01T01:35:48;98470.25;;;8.59;100.00
64683;BME280;51107;47.652;19.016;2023-04-01T01:38:22;98469.06;;;8.70;100.00
64683;BME280;51107;47.652;19.016;2023-04-01T01:40:55;98462.88;;;8.71;100.00
64683;BME280;51107;47.652;19.016;2023-04-01T01:43:35;98470.69;;;8.71;100.00
64683;BME280;51107;47.652;19.016;2023-04-01T01:46:09;98468.53;;;8.74;100.00
64683;BME280;51107;47.652;19.016;2023-04-01T01:48:41;98469.50;;;8.73;100.00
64683;BME280;51107;47.652;19.016;2023-04-01T01:51:11;98472.09;;;8.73;100.00
64683;BME280;51107;47.652;19.016;2023-04-01T01:53:40;98477.16;;;8.75;100.00
64683;BME280;51107;47.652;19.016;2023-04-01T01:56:10;98475.00;;;8.78;100.00
64683;BME280;51107;47.652;19.016;2023-04-01T01:58:53;98463.47;;;8.81;100.00
64683;BME280;51107;47.652;19.016;2023-04-01T02:01:27;98473.34;;;8.86;100.00
64683;BME280;51107;47.652;19.016;2023-04-01T02:03:57;98465.59;;;8.77;100.00
64683;BME280;51107;47.652;19.016;2023-04-01T02:06:29;98466.41;;;8.78;100.00
64683;BME280;51107;47.652;19.016;2023-04-01T02:09:02;98460.69;;;8.82;100.00
64683;BME280;51107;47.652;19.016;2023-04-01T02:11:51;98461.56;;;8.75;100.00
64683;BME280;51107;47.652;19.016;2023-04-01T02:17:21;98457.47;;;8.80;100.00
64683;BME280;51107;47.652;19.016;2023-04-01T02:20:05;98458.94;;;8.83;100.00
64683;BME280;51107;47.652;19.016;2023-04-01T02:22:39;98454.56;;;8.75;100.00
64683;BME280;51107;47.652;19.016;2023-04-01T02:25:18;98445.66;;;8.78;100.00
64683;BME280;51107;47.652;19.016;2023-04-01T02:27:48;98449.91;;;8.71;100.00
64683;BME280;51107;47.652;19.016;2023-04-01T02:30:18;98443.53;;;8.73;100.00
64683;BME280;51107;47.652;19.016;2023-04-01T02:32:47;98439.53;;;8.71;100.00
64683;BME280;51107;47.652;19.016;2023-04-01T02:35:17;98453.31;;;8.71;100.00
64683;BME280;51107;47.652;19.016;2023-04-01T02:37:46;98450.22;;;8.67;100.00
64683;BME280;51107;47.652;19.016;2023-04-01T02:40:17;98442.78;;;8.64;100.00
64683;BME280;51107;47.652;19.016;2023-04-01T02:42:46;98446.34;;;8.63;100.00
64683;BME280;51107;47.652;19.016;2023-04-01T02:45:15;98441.81;;;8.65;100.00
64683;BME280;51107;47.652;19.016;2023-04-01T02:47:43;98441.69;;;8.59;100.00
64683;BME280;51107;47.652;19.016;2023-04-01T02:50:11;98436.19;;;8.54;100.00
64683;BME280;51107;47.652;19.016;2023-04-01T02:52:40;98436.22;;;8.45;100.00
64683;BME280;51107;47.652;19.016;2023-04-01T02:55:08;98441.13;;;8.40;100.00
64683;BME280;51107;47.652;19.016;2023-04-01T02:57:37;98429.59;;;8.34;100.00
64683;BME280;51107;47.652;19.016;2023-04-01T03:00:05;98436.59;;;8.34;100.00
64683;BME280;51107;47.652;19.016;2023-04-01T03:02:39;98444.88;;;8.29;100.00
64683;BME280;51107;47.652;19.016;2023-04-01T03:05:07;98444.53;;;8.32;100.00
64683;BME280;51107;47.652;19.016;2023-04-01T03:07:36;98444.03;;;8.37;100.00
64683;BME280;51107;47.652;19.016;2023-04-01T03:10:06;98453.91;;;8.42;100.00
64683;BME280;51107;47.652;19.016;2023-04-01T03:12:34;98446.13;;;8.42;100.00
64683;BME280;51107;47.652;19.016;2023-04-01T03:15:03;98448.72;;;8.42;100.00
64683;BME280;51107;47.652;19.016;2023-04-01T03:17:40;98449.53;;;8.42;100.00
64683;BME280;51107;47.652;19.016;2023-04-01T03:20:10;98444.34;;;8.42;100.00
64683;BME280;51107;47.652;19.016;2023-04-01T03:22:39;98443.34;;;8.43;100.00
64683;BME280;51107;47.652;19.016;2023-04-01T03:25:10;98446.31;;;8.40;100.00
64683;BME280;51107;47.652;19.016;2023-04-01T03:27:38;98449.88;;;8.39;100.00
64683;BME280;51107;47.652;19.016;2023-04-01T03:30:08;98447.44;;;8.38;100.00
64683;BME280;51107;47.652;19.016;2023-04-01T03:32:37;98451.66;;;8.30;100.00
64683;BME280;51107;47.652;19.016;2023-04-01T03:35:06;98443.25;;;8.28;100.00
64683;BME280;51107;47.652;19.016;2023-04-01T03:37:34;98459.47;;;8.22;100.00
64683;BME280;51107;47.652;19.016;2023-04-01T03:40:03;98466.12;;;8.25;100.00
64683;BME280;51107;47.652;19.016;2023-04-01T03:42:31;98461.94;;;8.24;100.00
64683;BME280;51107;47.652;19.016;2023-04-01T03:45:01;98466.31;;;8.15;100.00
64683;BME280;51107;47.652;19.016;2023-04-01T03:47:29;98472.81;;;8.11;100.00
64683;BME280;51107;47.652;19.016;2023-04-01T03:49:58;98478.84;;;8.11;100.00
64683;BME280;51107;47.652;19.016;2023-04-01T03:52:26;98480.94;;;8.08;100.00
64683;BME280;51107;47.652;19.016;2023-04-01T03:54:55;98482.41;;;8.02;100.00
64683;BME280;51107;47.652;19.016;2023-04-01T03:57:24;98482.72;;;8.07;100.00
64683;BME280;51107;47.652;19.016;2023-04-01T03:59:53;98470.53;;;8.16;100.00
64683;BME280;51107;47.652;19.016;2023-04-01T04:02:21;98481.53;;;8.26;100.00
64683;BME280;51107;47.652;19.016;2023-04-01T04:04:50;98492.03;;;8.33;100.00
64683;BME280;51107;47.652;19.016;2023-04-01T04:07:18;98483.47;;;8.32;100.00
64683;BME280;51107;47.652;19.016;2023-04-01T04:09:48;98494.97;;;8.30;100.00
64683;BME280;51107;47.652;19.016;2023-04-01T04:12:16;98493.53;;;8.27;100.00
64683;BME280;51107;47.652;19.016;2023-04-01T04:14:45;98500.03;;;8.23;100.00
64683;BME280;51107;47.652;19.016;2023-04-01T04:17:13;98505.88;;;8.25;100.00
64683;BME280;51107;47.652;19.016;2023-04-01T04:19:44;98501.66;;;8.16;100.00
64683;BME280;51107;47.652;19.016;2023-04-01T04:22:13;98496.66;;;8.06;100.00
64683;BME280;51107;47.652;19.016;2023-04-01T04:24:41;98492.09;;;8.08;100.00
64683;BME280;51107;47.652;19.016;2023-04-01T04:27:10;98492.09;;;8.08;100.00
64683;BME280;51107;47.652;19.016;2023-04-01T04:29:42;98492.78;;;8.02;100.00
64683;BME280;51107;47.652;19.016;2023-04-01T04:32:11;98488.91;;;7.98;100.00
64683;BME280;51107;47.652;19.016;2023-04-01T04:34:39;98501.19;;;8.04;100.00
64683;BME280;51107;47.652;19.016;2023-04-01T04:37:08;98493.44;;;7.96;100.00
64683;BME280;51107;47.652;19.016;2023-04-01T04:39:36;98503.62;;;7.97;100.00
64683;BME280;51107;47.652;19.016;2023-04-01T04:42:05;98485.81;;;8.03;100.00
64683;BME280;51107;47.652;19.016;2023-04-01T04:44:34;98481.75;;;8.00;100.00
64683;BME280;51107;47.652;19.016;2023-04-01T04:47:02;98481.09;;;8.06;100.00
64683;BME280;51107;47.652;19.016;2023-04-01T04:49:31;98482.41;;;8.02;100.00
64683;BME280;51107;47.652;19.016;2023-04-01T04:52:01;98485.00;;;8.02;100.00
64683;BME280;51107;47.652;19.016;2023-04-01T04:54:29;98483.38;;;8.01;100.00
64683;BME280;51107;47.652;19.016;2023-04-01T04:56:58;98490.19;;;8.02;100.00
64683;BME280;51107;47.652;19.016;2023-04-01T04:59:27;98489.38;;;8.02;100.00
64683;BME280;51107;47.652;19.016;2023-04-01T05:01:56;98485.81;;;8.03;100.00
64683;BME280;51107;47.652;19.016;2023-04-01T05:04:25;98477.41;;;8.01;100.00
64683;BME280;51107;47.652;19.016;2023-04-01T05:06:53;98490.84;;;7.96;100.00
64683;BME280;51107;47.652;19.016;2023-04-01T05:09:22;98479.84;;;7.86;100.00
64683;BME280;51107;47.652;19.016;2023-04-01T05:11:51;98484.53;;;7.90;100.00
64683;BME280;51107;47.652;19.016;2023-04-01T05:14:19;98492.03;;;7.85;100.00
64683;BME280;51107;47.652;19.016;2023-04-01T05:16:49;98493.78;;;7.85;100.00
64683;BME280;51107;47.652;19.016;2023-04-01T05:19:18;98493.44;;;7.88;100.00
64683;BME280;51107;47.652;19.016;2023-04-01T05:21:47;98493.13;;;7.91;100.00
64683;BME280;51107;47.652;19.016;2023-04-01T05:24:16;98476.41;;;7.93;100.00
64683;BME280;51107;47.652;19.016;2023-04-01T05:26:44;98485.31;;;8.07;100.00
64683;BME280;51107;47.652;19.016;2023-04-01T05:29:13;98489.50;;;8.16;100.00
64683;BME280;51107;47.652;19.016;2023-04-01T05:31:41;98487.91;;;8.15;100.00
64683;BME280;51107;47.652;19.016;2023-04-01T05:34:10;98486.22;;;8.31;100.00
64683;BME280;51107;47.652;19.016;2023-04-01T05:36:38;98490.25;;;8.42;99.54
64683;BME280;51107;47.652;19.016;2023-04-01T05:39:07;98489.41;;;8.49;99.44
64683;BME280;51107;47.652;19.016;2023-04-01T05:41:37;98487.13;;;8.55;99.21
64683;BME280;51107;47.652;19.016;2023-04-01T05:44:05;98491.84;;;8.51;96.53
64683;BME280;51107;47.652;19.016;2023-04-01T05:46:38;98483.41;;;8.57;97.15
64683;BME280;51107;47.652;19.016;2023-04-01T05:49:07;98497.66;;;8.61;98.43
64683;BME280;51107;47.652;19.016;2023-04-01T05:51:36;98504.41;;;8.79;96.68
64683;BME280;51107;47.652;19.016;2023-04-01T05:54:05;98496.50;;;8.95;94.99
64683;BME280;51107;47.652;19.016;2023-04-01T05:56:34;98502.09;;;9.07;94.21
64683;BME280;51107;47.652;19.016;2023-04-01T05:59:02;98491.00;;;9.22;94.71
64683;BME280;51107;47.652;19.016;2023-04-01T06:01:31;98495.72;;;9.41;90.28
64683;BME280;51107;47.652;19.016;2023-04-01T06:04:00;98489.41;;;9.59;89.84
64683;BME280;51107;47.652;19.016;2023-04-01T06:06:30;98497.69;;;9.77;87.59
64683;BME280;51107;47.652;19.016;2023-04-01T06:09:16;98495.72;;;9.79;86.32
64683;BME280;51107;47.652;19.016;2023-04-01T06:14:47;98489.81;;;10.00;85.61
64683;BME280;51107;47.652;19.016;2023-04-01T06:20:12;98495.22;;;10.44;82.74
64683;BME280;51107;47.652;19.016;2023-04-01T06:26:08;98469.00;;;10.45;82.52
64683;BME280;51107;47.652;19.016;2023-04-01T06:28:55;98488.03;;;10.61;82.61
64683;BME280;51107;47.652;19.016;2023-04-01T06:31:50;98486.03;;;10.63;81.51
64683;BME280;51107;47.652;19.016;2023-04-01T06:34:48;98493.56;;;10.73;79.71
64683;BME280;51107;47.652;19.016;2023-04-01T06:46:15;98500.13;;;10.68;78.32
64683;BME280;51107;47.652;19.016;2023-04-01T06:52:07;98505.66;;;10.95;76.07
64683;BME280;51107;47.652;19.016;2023-04-01T06:54:53;98497.75;;;10.88;76.14
64683;BME280;51107;47.652;19.016;2023-04-01T06:57:41;98499.00;;;10.93;78.46
64683;BME280;51107;47.652;19.016;2023-04-01T07:02:55;98501.28;;;11.17;74.63
64683;BME280;51107;47.652;19.016;2023-04-01T07:05:30;98513.06;;;11.35;74.44
64683;BME280;51107;47.652;19.016;2023-04-01T07:08:04;98511.56;;;11.26;74.15
64683;BME280;51107;47.652;19.016;2023-04-01T07:24:33;98493.06;;;11.92;70.78
64683;BME280;51107;47.652;19.016;2023-04-01T07:27:02;98499.87;;;12.21;68.69
64683;BME280;51107;47.652;19.016;2023-04-01T07:29:31;98502.19;;;12.38;68.69
64683;BME280;51107;47.652;19.016;2023-04-01T07:44:25;98503.34;;;12.35;68.35
64683;BME280;51107;47.652;19.016;2023-04-01T07:47:32;98507.72;;;12.21;68.14
64683;BME280;51107;47.652;19.016;2023-04-01T07:50:11;98513.09;;;12.48;68.32
64683;BME280;51107;47.652;19.016;2023-04-01T07:55:15;98519.34;;;12.54;67.14
64683;BME280;51107;47.652;19.016;2023-04-01T07:58:08;98516.19;;;12.72;66.32
64683;BME280;51107;47.652;19.016;2023-04-01T08:06:20;98515.50;;;13.05;66.09
64683;BME280;51107;47.652;19.016;2023-04-01T08:11:41;98520.53;;;13.06;64.81
64683;BME280;51107;47.652;19.016;2023-04-01T08:14:46;98525.56;;;13.15;66.21
64683;BME280;51107;47.652;19.016;2023-04-01T08:17:41;98516.91;;;13.01;65.51
64683;BME280;51107;47.652;19.016;2023-04-01T08:22:53;98531.41;;;13.23;66.11
64683;BME280;51107;47.652;19.016;2023-04-01T08:25:28;98519.81;;;13.39;65.34
64683;BME280;51107;47.652;19.016;2023-04-01T08:28:11;98515.16;;;13.35;66.13
64683;BME280;51107;47.652;19.016;2023-04-01T08:30:52;98525.47;;;13.56;65.29
64683;BME280;51107;47.652;19.016;2023-04-01T08:33:29;98531.31;;;13.65;64.80
64683;BME280;51107;47.652;19.016;2023-04-01T08:36:16;98531.72;;;13.55;65.14
64683;BME280;51107;47.652;19.016;2023-04-01T08:39:07;98525.84;;;13.47;66.89
64683;BME280;51107;47.652;19.016;2023-04-01T08:53:00;98531.72;;;12.80;68.39
64683;BME280;51107;47.652;19.016;2023-04-01T08:58:25;98536.81;;;13.02;69.79
64683;BME280;51107;47.652;19.016;2023-04-01T09:09:37;98533.31;;;12.33;74.11
64683;BME280;51107;47.652;19.016;2023-04-01T09:21:16;98532.88;;;12.71;68.48
64683;BME280;51107;47.652;19.016;2023-04-01T09:37:36;98526.78;;;11.94;72.88
64683;BME280;51107;47.652;19.016;2023-04-01T09:43:26;98523.81;;;11.97;74.67
64683;BME280;51107;47.652;19.016;2023-04-01T09:49:13;98525.56;;;12.18;74.38
64683;BME280;51107;47.652;19.016;2023-04-01T10:06:20;98533.28;;;11.98;72.63
64683;BME280;51107;47.652;19.016;2023-04-01T10:32:11;98541.72;;;11.78;74.61
64683;BME280;51107;47.652;19.016;2023-04-01T10:37:32;98535.28;;;12.02;73.24
64683;BME280;51107;47.652;19.016;2023-04-01T10:58:56;98536.63;;;13.03;71.27
64683;BME280;51107;47.652;19.016;2023-04-01T11:08:45;98529.09;;;13.89;68.65
64683;BME280;51107;47.652;19.016;2023-04-01T11:26:00;98540.28;;;12.61;67.72
64683;BME280;51107;47.652;19.016;2023-04-01T11:41:38;98545.37;;;11.84;72.99
64683;BME280;51107;47.652;19.016;2023-04-01T11:44:21;98544.81;;;11.88;74.32
64683;BME280;51107;47.652;19.016;2023-04-01T11:55:31;98535.44;;;12.22;74.66
64683;BME280;51107;47.652;19.016;2023-04-01T12:20:50;98533.69;;;13.47;63.24
64683;BME280;51107;47.652;19.016;2023-04-01T12:26:23;98533.41;;;13.15;64.09
64683;BME280;51107;47.652;19.016;2023-04-01T12:29:34;98542.75;;;13.37;64.33
64683;BME280;51107;47.652;19.016;2023-04-01T12:35:36;98529.91;;;13.56;63.81
64683;BME280;51107;47.652;19.016;2023-04-01T12:38:33;98518.41;;;13.77;63.92
64683;BME280;51107;47.652;19.016;2023-04-01T12:47:00;98536.31;;;14.07;60.74
64683;BME280;51107;47.652;19.016;2023-04-01T12:55:41;98528.03;;;14.30;59.54
64683;BME280;51107;47.652;19.016;2023-04-01T13:07:10;98517.47;;;14.50;59.23
64683;BME280;51107;47.652;19.016;2023-04-01T13:15:19;98500.56;;;14.46;56.17
64683;BME280;51107;47.652;19.016;2023-04-01T13:20:53;98514.06;;;14.50;57.23
64683;BME280;51107;47.652;19.016;2023-04-01T13:23:25;98500.91;;;14.70;57.83
64683;BME280;51107;47.652;19.016;2023-04-01T13:31:50;98511.16;;;14.78;56.90
64683;BME280;51107;47.652;19.016;2023-04-01T13:42:29;98514.13;;;14.88;55.33
64683;BME280;51107;47.652;19.016;2023-04-01T13:45:12;98510.59;;;14.63;56.82
64683;BME280;51107;47.652;19.016;2023-04-01T13:50:57;98514.16;;;14.82;56.90
64683;BME280;51107;47.652;19.016;2023-04-01T13:53:55;98510.78;;;14.61;54.90
64683;BME280;51107;47.652;19.016;2023-04-01T13:56:39;98513.00;;;14.64;56.33
64683;BME280;51107;47.652;19.016;2023-04-01T14:11:17;98524.13;;;14.53;58.09
64683;BME280;51107;47.652;19.016;2023-04-01T14:19:50;98517.91;;;14.47;58.83
64683;BME280;51107;47.652;19.016;2023-04-01T14:50:54;98524.34;;;14.44;57.08
64683;BME280;51107;47.652;19.016;2023-04-01T14:55:57;98515.72;;;14.37;59.89
64683;BME280;51107;47.652;19.016;2023-04-01T15:07:10;98513.44;;;14.54;58.61
64683;BME280;51107;47.652;19.016;2023-04-01T15:15:24;98520.84;;;14.71;56.17
64683;BME280;51107;47.652;19.016;2023-04-01T15:18:08;98522.13;;;14.55;56.34
64683;BME280;51107;47.652;19.016;2023-04-01T15:23:39;98517.91;;;14.34;56.62
64683;BME280;51107;47.652;19.016;2023-04-01T15:26:49;98516.91;;;14.35;55.97
64683;BME280;51107;47.652;19.016;2023-04-01T15:40:06;98526.00;;;14.25;56.59
64683;BME280;51107;47.652;19.016;2023-04-01T15:42:49;98517.91;;;14.47;56.06
64683;BME280;51107;47.652;19.016;2023-04-01T15:51:24;98523.53;;;14.51;57.10
64683;BME280;51107;47.652;19.016;2023-04-01T16:05:32;98545.75;;;14.21;55.93
64683;BME280;51107;47.652;19.016;2023-04-01T16:08:21;98550.00;;;14.22;57.09
64683;BME280;51107;47.652;19.016;2023-04-01T16:16:28;98570.38;;;13.80;58.92
64683;BME280;51107;47.652;19.016;2023-04-01T16:21:52;98576.00;;;13.64;60.57
64683;BME280;51107;47.652;19.016;2023-04-01T16:24:33;98574.16;;;13.44;61.24
64683;BME280;51107;47.652;19.016;2023-04-01T16:29:53;98578.16;;;13.40;63.23
64683;BME280;51107;47.652;19.016;2023-04-01T16:32:46;98577.19;;;13.54;59.94
64683;BME280;51107;47.652;19.016;2023-04-01T16:38:39;98589.78;;;13.31;61.73
64683;BME280;51107;47.652;19.016;2023-04-01T16:41:19;98587.78;;;13.33;62.05
64683;BME280;51107;47.652;19.016;2023-04-01T16:43:51;98589.78;;;13.31;61.86
64683;BME280;51107;47.652;19.016;2023-04-01T16:49:24;98588.22;;;13.50;57.58
64683;BME280;51107;47.652;19.016;2023-04-01T16:52:03;98592.22;;;13.32;57.49
64683;BME280;51107;47.652;19.016;2023-04-01T16:54:58;98600.13;;;13.39;57.28
64683;BME280;51107;47.652;19.016;2023-04-01T16:57:37;98594.59;;;13.27;58.57
64683;BME280;51107;47.652;19.016;2023-04-01T17:00:26;98591.91;;;13.07;58.62
64683;BME280;51107;47.652;19.016;2023-04-01T17:03:12;98605.38;;;13.04;60.32
64683;BME280;51107;47.652;19.016;2023-04-01T17:06:11;98610.38;;;12.92;59.88
64683;BME280;51107;47.652;19.016;2023-04-01T17:20:24;98614.06;;;12.69;62.07
64683;BME280;51107;47.652;19.016;2023-04-01T17:35:35;98632.09;;;12.29;62.71
64683;BME280;51107;47.652;19.016;2023-04-01T17:40:44;98641.19;;;12.12;62.33
64683;BME280;51107;47.652;19.016;2023-04-01T17:51:51;98638.06;;;11.80;65.31
64683;BME280;51107;47.652;19.016;2023-04-01T17:57:30;98640.62;;;11.73;65.52
64683;BME280;51107;47.652;19.016;2023-04-01T18:03:24;98645.72;;;11.81;63.13
64683;BME280;51107;47.652;19.016;2023-04-01T18:06:12;98655.88;;;11.76;64.75
64683;BME280;51107;47.652;19.016;2023-04-01T18:08:56;98657.81;;;11.67;66.20
64683;BME280;51107;47.652;19.016;2023-04-01T18:17:21;98665.59;;;11.46;67.83
64683;BME280;51107;47.652;19.016;2023-04-01T18:20:25;98674.19;;;11.25;65.96
64683;BME280;51107;47.652;19.016;2023-04-01T18:23:00;98669.34;;;11.21;67.83
64683;BME280;51107;47.652;19.016;2023-04-01T18:25:52;98669.53;;;11.20;68.49
64683;BME280;51107;47.652;19.016;2023-04-01T18:31:07;98675.19;;;11.09;71.13
64683;BME280;51107;47.652;19.016;2023-04-01T18:33:59;98679.88;;;10.98;71.54
64683;BME280;51107;47.652;19.016;2023-04-01T18:36:59;98685.78;;;10.92;71.07
64683;BME280;51107;47.652;19.016;2023-04-01T18:56:02;98699.75;;;10.46;73.64
64683;BME280;51107;47.652;19.016;2023-04-01T18:58:48;98692.66;;;10.40;74.64
64683;BME280;51107;47.652;19.016;2023-04-01T19:04:18;98701.84;;;10.28;75.83
64683;BME280;51107;47.652;19.016;2023-04-01T19:06:53;98702.94;;;10.33;74.15
64683;BME280;51107;47.652;19.016;2023-04-01T19:09:32;98707.38;;;10.25;74.75
64683;BME280;51107;47.652;19.016;2023-04-01T19:21:03;98709.22;;;10.16;73.71
64683;BME280;51107;47.652;19.016;2023-04-01T19:23:53;98710.63;;;10.27;74.49
64683;BME280;51107;47.652;19.016;2023-04-01T19:27:35;98700.50;;;10.32;71.87
64683;BME280;51107;47.652;19.016;2023-04-01T19:41:01;98712.72;;;10.69;69.50
64683;BME280;51107;47.652;19.016;2023-04-01T19:52:00;98728.72;;;10.66;68.88
64683;BME280;51107;47.652;19.016;2023-04-01T19:54:57;98736.28;;;10.76;68.52
64683;BME280;51107;47.652;19.016;2023-04-01T20:00:44;98734.53;;;10.68;69.06
64683;BME280;51107;47.652;19.016;2023-04-01T20:14:58;98732.59;;;10.70;67.70
64683;BME280;51107;47.652;19.016;2023-04-01T20:17:40;98722.50;;;10.67;68.40
64683;BME280;51107;47.652;19.016;2023-04-01T20:28:11;98727.09;;;10.65;68.28
64683;BME280;51107;47.652;19.016;2023-04-01T20:41:33;98720.87;;;10.51;69.37
64683;BME280;51107;47.652;19.016;2023-04-01T20:46:53;98726.31;;;10.42;69.78
64683;BME280;51107;47.652;19.016;2023-04-01T20:57:51;98740.78;;;9.58;75.71
64683;BME280;51107;47.652;19.016;2023-04-01T21:06:09;98764.44;;;9.32;77.22
64683;BME280;51107;47.652;19.016;2023-04-01T21:11:33;98765.06;;;9.42;77.43
64683;BME280;51107;47.652;19.016;2023-04-01T21:17:08;98765.91;;;9.26;79.09
64683;BME280;51107;47.652;19.016;2023-04-01T21:25:04;98756.97;;;9.29;79.43
64683;BME280;51107;47.652;19.016;2023-04-01T21:36:30;98768.69;;;9.25;82.00
64683;BME280;51107;47.652;19.016;2023-04-01T21:39:26;98766.44;;;9.22;81.56
64683;BME280;51107;47.652;19.016;2023-04-01T21:42:12;98765.13;;;9.17;81.56
64683;BME280;51107;47.652;19.016;2023-04-01T22:01:57;98769.25;;;9.51;77.14
64683;BME280;51107;47.652;19.016;2023-04-01T22:04:58;98771.22;;;9.49;76.45
64683;BME280;51107;47.652;19.016;2023-04-01T22:07:51;98776.88;;;9.53;76.00
64683;BME280;51107;47.652;19.016;2023-04-01T22:13:23;98771.47;;;9.94;72.89
64683;BME280;51107;47.652;19.016;2023-04-01T22:19:38;98779.63;;;9.91;73.05
64683;BME280;51107;47.652;19.016;2023-04-01T22:22:26;98779.84;;;9.81;74.09
64683;BME280;51107;47.652;19.016;2023-04-01T22:25:03;98779.38;;;9.78;74.09
64683;BME280;51107;47.652;19.016;2023-04-01T22:27:54;98788.31;;;9.83;73.91
64683;BME280;51107;47.652;19.016;2023-04-01T22:30:28;98787.66;;;9.81;74.37
64683;BME280;51107;47.652;19.016;2023-04-01T22:33:07;98793.53;;;9.75;74.73
64683;BME280;51107;47.652;19.016;2023-04-01T22:38:51;98797.59;;;9.69;75.54
64683;BME280;51107;47.652;19.016;2023-04-01T22:44:18;98800.12;;;9.55;76.32
64683;BME280;51107;47.652;19.016;2023-04-01T22:47:01;98804.31;;;9.56;76.76
64683;BME280;51107;47.652;19.016;2023-04-01T22:49:41;98805.81;;;9.50;76.56
64683;BME280;51107;47.652;19.016;2023-04-01T22:52:30;98810.72;;;9.37;77.31
64683;BME280;51107;47.652;19.016;2023-04-01T22:55:05;98820.97;;;9.30;77.55
64683;BME280;51107;47.652;19.016;2023-04-01T22:58:04;98821.94;;;9.29;77.88
64683;BME280;51107;47.652;19.016;2023-04-01T23:00:38;98822.59;;;9.14;78.22
64683;BME280;51107;47.652;19.016;2023-04-01T23:05:49;98830.72;;;9.20;77.77
64683;BME280;51107;47.652;19.016;2023-04-01T23:11:07;98830.91;;;9.18;77.98
64683;BME280;51107;47.652;19.016;2023-04-01T23:13:45;98844.22;;;9.07;78.47
64683;BME280;51107;47.652;19.016;2023-04-01T23:16:19;98827.81;;;9.14;78.85
64683;BME280;51107;47.652;19.016;2023-04-01T23:19:13;98844.69;;;9.02;79.39
64683;BME280;51107;47.652;19.016;2023-04-01T23:24:44;98845.53;;;8.78;81.11
64683;BME280;51107;47.652;19.016;2023-04-01T23:36:13;98843.81;;;8.36;84.17
64683;BME280;51107;47.652;19.016;2023-04-01T23:38:47;98842.25;;;8.51;83.64
64683;BME280;51107;47.652;19.016;2023-04-01T23:41:23;98847.44;;;8.51;84.29
64683;BME280;51107;47.652;19.016;2023-04-01T23:44:09;98842.00;;;8.11;85.92
64683;BME280;51107;47.652;19.016;2023-04-01T23:46:39;98841.03;;;8.29;85.25
64683;BME280;51107;47.652;19.016;2023-04-01T23:49:24;98842.84;;;8.28;85.95
64683;BME280;51107;47.652;19.016;2023-04-01T23:51:59;98839.56;;;8.26;85.54
64683;BME280;51107;47.652;19.016;2023-04-01T23:54:34;98854.00;;;8.29;85.44
64683;BME280;51107;47.652;19.016;2023-04-01T23:57:21;98843.16;;;8.25;86.22
